createdAt,value
2018-09-24T00:01:25.429Z,79.90
2018-09-24T00:04:01.744Z,80.10
2018-09-24T00:06:38.204Z,81.20
2018-09-24T00:09:15.460Z,80.60
2018-09-24T00:11:52.359Z,81.30
2018-09-24T00:14:28.798Z,82.60
2018-09-24T00:17:05.310Z,81.60
2018-09-24T00:19:41.798Z,81.30
2018-09-24T00:22:18.145Z,81.50
2018-09-24T00:24:54.635Z,83.00
2018-09-24T00:27:31.017Z,84.20
2018-09-24T00:30:07.604Z,84.30
2018-09-24T00:32:44.179Z,83.60
2018-09-24T00:35:20.571Z,84.10
2018-09-24T00:37:57.095Z,83.50
2018-09-24T00:40:33.596Z,82.10
2018-09-24T00:43:09.935Z,82.90
2018-09-24T00:45:46.396Z,81.70
2018-09-24T00:48:22.827Z,83.00
2018-09-24T00:50:59.294Z,81.90
2018-09-24T00:53:35.934Z,81.90
2018-09-24T00:56:13.385Z,82.00
2018-09-24T00:58:49.731Z,81.70
2018-09-24T01:01:26.199Z,81.60
2018-09-24T01:04:02.689Z,82.20
2018-09-24T01:06:39.025Z,81.80
2018-09-24T01:09:15.574Z,82.00
2018-09-24T01:11:51.936Z,81.00
2018-09-24T01:14:28.331Z,80.70
2018-09-24T01:17:04.836Z,81.10
2018-09-24T01:19:41.106Z,81.40
2018-09-24T01:22:17.473Z,82.70
2018-09-24T01:24:53.882Z,83.30
2018-09-24T01:27:30.346Z,83.70
2018-09-24T01:30:06.999Z,84.30
2018-09-24T01:32:43.272Z,84.30
2018-09-24T01:35:19.688Z,83.10
2018-09-24T01:37:56.075Z,83.90
2018-09-24T01:40:32.881Z,86.90
2018-09-24T01:43:09.167Z,85.40
2018-09-24T01:45:45.592Z,85.90
2018-09-24T01:48:22.486Z,86.90
2018-09-24T01:50:59.028Z,85.70
2018-09-24T01:53:35.435Z,84.10
2018-09-24T01:56:11.942Z,84.20
2018-09-24T01:58:48.440Z,83.20
2018-09-24T02:01:24.945Z,84.60
2018-09-24T02:04:01.431Z,84.50
2018-09-24T02:06:37.886Z,84.80
2018-09-24T02:09:14.390Z,84.50
2018-09-24T02:11:50.741Z,84.20
2018-09-24T02:14:27.190Z,83.30
2018-09-24T02:17:03.904Z,83.00
2018-09-24T02:19:40.348Z,83.20
2018-09-24T02:22:25.998Z,83.30
2018-09-24T02:25:02.242Z,83.50
2018-09-24T02:27:38.675Z,85.10
2018-09-24T02:30:17.356Z,85.30
2018-09-24T02:32:53.785Z,84.30
2018-09-24T02:35:30.353Z,83.00
2018-09-24T02:38:06.841Z,84.20
2018-09-24T02:40:43.156Z,85.20
2018-09-24T02:43:25.634Z,86.60
2018-09-24T02:46:02.007Z,87.20
2018-09-24T02:48:38.471Z,88.50
2018-09-24T02:51:14.989Z,88.20
2018-09-24T02:53:51.419Z,89.10
2018-09-24T02:56:27.920Z,89.10
2018-09-24T02:59:04.242Z,89.20
2018-09-24T03:01:40.747Z,90.40
2018-09-24T03:04:17.210Z,90.60
2018-09-24T03:06:53.687Z,91.40
2018-09-24T03:09:30.913Z,92.80
2018-09-24T03:12:07.944Z,92.60
2018-09-24T03:14:44.348Z,92.20
2018-09-24T03:17:21.194Z,91.70
2018-09-24T03:19:57.619Z,90.80
2018-09-24T03:22:34.095Z,90.90
2018-09-24T03:25:17.166Z,87.70
2018-09-24T03:27:53.657Z,84.00
2018-09-24T03:30:36.519Z,84.20
2018-09-24T03:33:12.863Z,83.60
2018-09-24T03:35:49.335Z,84.80
2018-09-24T03:38:25.796Z,85.60
2018-09-24T03:41:02.172Z,86.20
2018-09-24T03:43:38.603Z,85.70
2018-09-24T03:46:15.108Z,85.10
2018-09-24T03:48:51.354Z,85.00
2018-09-24T03:51:27.808Z,83.40
2018-09-24T03:54:04.245Z,82.60
2018-09-24T03:56:40.647Z,82.40
2018-09-24T03:59:17.040Z,82.10
2018-09-24T04:01:53.475Z,82.60
2018-09-24T04:04:35.137Z,83.10
2018-09-24T04:07:16.777Z,83.30
2018-09-24T04:09:58.487Z,84.50
2018-09-24T04:12:39.996Z,86.40
2018-09-24T04:15:21.714Z,88.70
2018-09-24T04:18:03.503Z,88.70
2018-09-24T04:20:45.148Z,89.80
2018-09-24T04:23:26.808Z,90.70
2018-09-24T04:26:08.311Z,92.60
2018-09-24T04:28:49.885Z,93.40
2018-09-24T04:31:31.561Z,94.50
2018-09-24T04:34:13.041Z,93.90
2018-09-24T04:36:54.552Z,94.50
2018-09-24T04:39:36.272Z,96.10
2018-09-24T04:42:17.931Z,96.90
2018-09-24T04:44:59.570Z,97.80
2018-09-24T04:47:41.209Z,95.90
2018-09-24T04:50:22.859Z,96.20
2018-09-24T04:53:04.468Z,96.50
2018-09-24T04:55:46.024Z,97.30
2018-09-24T04:58:27.798Z,97.70
2018-09-24T05:01:09.397Z,97.70
2018-09-24T05:03:51.024Z,98.10
2018-09-24T05:06:32.531Z,98.70
2018-09-24T05:09:14.577Z,99.20
2018-09-24T05:11:56.265Z,99.70
2018-09-24T05:14:38.030Z,99.90
2018-09-24T05:17:19.543Z,99.70
2018-09-24T05:20:01.158Z,99.70
2018-09-24T05:22:42.972Z,99.80
2018-09-24T05:25:24.503Z,99.70
2018-09-24T05:28:06.236Z,99.20
2018-09-24T05:30:48.533Z,99.20
2018-09-24T05:33:30.229Z,99.70
2018-09-24T05:36:11.915Z,99.80
2018-09-24T05:38:53.695Z,99.00
2018-09-24T05:41:35.551Z,99.20
2018-09-24T05:44:17.215Z,98.20
2018-09-24T05:46:58.670Z,99.10
2018-09-24T05:49:40.374Z,98.70
2018-09-24T05:52:21.882Z,97.80
2018-09-24T05:55:03.445Z,96.00
2018-09-24T05:57:44.908Z,92.80
2018-09-24T06:00:26.681Z,91.20
2018-09-24T06:03:08.421Z,88.90
2018-09-24T06:05:50.114Z,86.20
2018-09-24T06:08:31.819Z,85.20
2018-09-24T06:11:13.742Z,81.00
2018-09-24T06:13:55.289Z,79.10
2018-09-24T06:16:36.986Z,77.20
2018-09-24T06:19:18.680Z,77.20
2018-09-24T06:22:00.347Z,76.90
2018-09-24T06:24:41.870Z,74.00
2018-09-24T06:27:23.527Z,72.20
2018-09-24T06:30:05.206Z,70.70
2018-09-24T06:32:47.148Z,70.10
2018-09-24T06:35:28.658Z,68.70
2018-09-24T06:38:10.474Z,68.50
2018-09-24T06:40:51.938Z,66.10
2018-09-24T06:43:33.413Z,65.50
2018-09-24T06:55:35.116Z,64.90
2018-09-24T06:58:16.635Z,62.60
2018-09-24T07:00:58.246Z,58.60
2018-09-24T07:03:39.775Z,58.00
2018-09-24T07:06:21.308Z,57.60
2018-09-24T07:09:02.872Z,57.30
2018-09-24T07:11:44.528Z,55.30
2018-09-24T07:14:26.045Z,55.00
2018-09-24T07:17:07.638Z,55.00
2018-09-24T07:19:49.318Z,53.60
2018-09-24T07:22:30.922Z,52.80
2018-09-24T07:25:12.728Z,52.90
2018-09-24T07:27:54.556Z,50.80
2018-09-24T07:30:36.168Z,48.90
2018-09-24T07:33:17.803Z,47.90
2018-09-24T07:35:59.324Z,46.30
2018-09-24T07:38:41.439Z,44.70
2018-09-24T07:41:23.045Z,42.80
2018-09-24T07:44:05.487Z,42.70
2018-09-24T07:46:47.012Z,43.70
2018-09-24T07:49:28.677Z,43.00
2018-09-24T07:52:10.298Z,45.30
2018-09-24T07:54:51.893Z,45.90
2018-09-24T07:57:33.394Z,46.70
2018-09-24T08:00:15.171Z,44.90
2018-09-24T08:02:56.834Z,44.30
2018-09-24T08:05:38.500Z,44.60
2018-09-24T08:08:20.084Z,42.00
2018-09-24T08:11:01.819Z,41.80
2018-09-24T08:13:43.725Z,40.80
2018-09-24T08:16:25.655Z,40.80
2018-09-24T08:19:07.280Z,39.50
2018-09-24T08:21:49.009Z,40.20
2018-09-24T08:24:30.761Z,40.30
2018-09-24T08:27:12.494Z,38.10
2018-09-24T08:29:54.182Z,37.60
2018-09-24T08:32:35.899Z,36.70
2018-09-24T08:35:17.593Z,37.40
2018-09-24T08:37:59.279Z,37.40
2018-09-24T08:40:41.082Z,35.90
2018-09-24T08:43:22.625Z,36.50
2018-09-24T08:46:04.106Z,35.90
2018-09-24T08:48:45.848Z,35.80
2018-09-24T08:51:27.538Z,35.50
2018-09-24T08:54:09.285Z,37.70
2018-09-24T08:56:50.908Z,36.10
2018-09-24T08:59:32.462Z,35.70
2018-09-24T09:02:14.094Z,37.60
2018-09-24T09:04:55.709Z,38.20
2018-09-24T09:07:37.414Z,36.90
2018-09-24T09:10:19.075Z,35.30
2018-09-24T09:13:00.705Z,36.40
2018-09-24T09:15:42.465Z,37.00
2018-09-24T09:18:24.296Z,37.80
2018-09-24T09:21:05.984Z,36.70
2018-09-24T09:23:47.599Z,36.90
2018-09-24T09:26:29.194Z,37.80
2018-09-24T09:29:11.074Z,37.60
2018-09-24T09:31:52.671Z,37.40
2018-09-24T09:34:34.300Z,37.20
2018-09-24T09:37:15.985Z,37.80
2018-09-24T09:39:57.537Z,38.90
2018-09-24T09:42:39.256Z,41.00
2018-09-24T09:45:20.972Z,39.90
2018-09-24T09:48:02.725Z,40.00
2018-09-24T09:50:44.510Z,41.40
2018-09-24T09:53:26.386Z,39.90
2018-09-24T09:56:08.086Z,37.90
2018-09-24T09:58:49.768Z,38.20
2018-09-24T10:01:31.444Z,35.30
2018-09-24T10:04:13.054Z,33.50
2018-09-24T10:06:54.680Z,33.70
2018-09-24T10:09:36.399Z,34.40
2018-09-24T10:12:17.992Z,33.80
2018-09-24T10:15:00.173Z,34.10
2018-09-24T10:17:41.762Z,36.10
2018-09-24T10:20:23.618Z,37.00
2018-09-24T10:23:05.155Z,37.30
2018-09-24T10:25:46.636Z,35.40
2018-09-24T10:28:28.288Z,35.50
2018-09-24T10:31:10.185Z,34.00
2018-09-24T10:33:51.746Z,34.90
2018-09-24T10:36:33.625Z,33.00
2018-09-24T10:39:15.709Z,34.30
2018-09-24T10:41:58.638Z,33.30
2018-09-24T10:44:40.384Z,33.90
2018-09-24T10:47:21.857Z,32.90
2018-09-24T10:50:03.402Z,32.10
2018-09-24T10:52:45.277Z,34.70
2018-09-24T10:55:26.931Z,35.50
2018-09-24T10:58:08.714Z,34.70
2018-09-24T11:00:50.468Z,33.60
2018-09-24T11:03:32.090Z,35.30
2018-09-24T11:06:13.650Z,35.80
2018-09-24T11:08:55.254Z,36.00
2018-09-24T11:11:36.744Z,35.00
2018-09-24T11:14:18.652Z,34.10
2018-09-24T11:17:00.448Z,34.90
2018-09-24T11:19:42.028Z,35.80
2018-09-24T11:22:23.779Z,36.10
2018-09-24T11:25:05.501Z,35.20
2018-09-24T11:27:47.150Z,34.60
2018-09-24T11:30:28.794Z,31.40
2018-09-24T11:33:10.466Z,33.00
2018-09-24T11:35:52.025Z,32.40
2018-09-24T11:38:33.716Z,34.10
2018-09-24T11:41:15.500Z,32.80
2018-09-24T11:43:57.268Z,32.40
2018-09-24T11:46:39.046Z,32.10
2018-09-24T11:49:20.654Z,32.70
2018-09-24T11:52:02.359Z,33.70
2018-09-24T11:54:43.886Z,33.40
2018-09-24T11:57:25.770Z,33.30
2018-09-24T12:00:07.432Z,31.00
2018-09-24T12:02:49.103Z,31.70
2018-09-24T12:05:30.840Z,32.00
2018-09-24T12:08:12.565Z,30.70
2018-09-24T12:10:54.155Z,31.30
2018-09-24T12:13:35.786Z,31.30
2018-09-24T12:16:17.574Z,31.50
2018-09-24T12:18:59.391Z,31.70
2018-09-24T12:21:40.943Z,30.40
2018-09-24T12:24:22.636Z,32.30
2018-09-24T12:27:04.333Z,32.40
2018-09-24T12:29:46.005Z,32.10
2018-09-24T12:32:27.643Z,32.60
2018-09-24T12:35:09.298Z,31.80
2018-09-24T12:37:50.912Z,32.20
2018-09-24T12:40:32.868Z,31.90
2018-09-24T12:43:14.751Z,33.60
2018-09-24T12:45:56.600Z,32.30
2018-09-24T12:48:38.280Z,31.20
2018-09-24T12:51:20.207Z,31.50
2018-09-24T12:54:01.962Z,31.40
2018-09-24T12:56:44.602Z,30.70
2018-09-24T12:59:26.219Z,31.00
2018-09-24T13:02:07.639Z,30.30
2018-09-24T13:04:49.831Z,30.20
2018-09-24T13:07:31.627Z,32.40
2018-09-24T13:10:13.366Z,29.80
2018-09-24T13:12:55.080Z,31.20
2018-09-24T13:15:36.752Z,30.20
2018-09-24T13:18:18.638Z,32.50
2018-09-24T13:21:00.348Z,32.10
2018-09-24T13:23:42.580Z,33.10
2018-09-24T13:26:24.477Z,32.50
2018-09-24T13:29:06.380Z,32.50
2018-09-24T13:31:48.059Z,32.00
2018-09-24T13:34:29.750Z,31.20
2018-09-24T13:37:12.537Z,32.00
2018-09-24T13:39:54.016Z,31.60
2018-09-24T13:42:35.788Z,32.10
2018-09-24T13:45:17.375Z,32.00
2018-09-24T13:47:58.952Z,31.60
2018-09-24T13:50:40.542Z,32.70
2018-09-24T13:53:22.310Z,32.00
2018-09-24T13:56:04.065Z,32.00
2018-09-24T13:58:45.902Z,33.00
2018-09-24T14:01:27.515Z,32.50
2018-09-24T14:04:09.212Z,33.90
2018-09-24T14:06:50.885Z,32.70
2018-09-24T14:09:32.486Z,33.10
2018-09-24T14:12:14.120Z,33.30
2018-09-24T14:14:55.785Z,34.60
2018-09-24T14:17:37.393Z,35.90
2018-09-24T14:20:20.047Z,36.20
2018-09-24T14:23:02.160Z,37.10
2018-09-24T14:25:44.228Z,37.60
2018-09-24T14:28:25.889Z,37.80
2018-09-24T14:31:07.619Z,38.00
2018-09-24T14:33:49.075Z,38.30
2018-09-24T14:36:30.699Z,38.50
2018-09-24T14:39:15.289Z,38.40
2018-09-24T14:41:56.849Z,39.30
2018-09-24T14:44:38.699Z,39.20
2018-09-24T14:47:20.493Z,39.20
2018-09-24T14:50:02.151Z,39.30
2018-09-24T14:52:43.810Z,39.50
2018-09-24T14:55:25.529Z,40.10
2018-09-24T14:58:07.345Z,39.80
2018-09-24T15:00:49.207Z,39.60
2018-09-24T15:03:30.899Z,40.50
2018-09-24T15:06:13.174Z,40.00
2018-09-24T15:08:54.862Z,39.70
2018-09-24T15:11:36.476Z,39.70
2018-09-24T15:14:17.961Z,40.20
2018-09-24T15:16:59.791Z,39.60
2018-09-24T15:19:41.436Z,39.20
2018-09-24T15:22:23.052Z,39.90
2018-09-24T15:25:04.700Z,38.70
2018-09-24T15:27:46.420Z,39.30
2018-09-24T15:30:28.581Z,38.40
2018-09-24T15:33:10.058Z,38.50
2018-09-24T15:35:51.712Z,38.10
2018-09-24T15:38:33.509Z,38.80
2018-09-24T15:41:15.299Z,37.50
2018-09-24T15:43:56.927Z,38.40
2018-09-24T15:46:38.390Z,38.80
2018-09-24T15:49:19.979Z,38.80
2018-09-24T15:52:01.440Z,39.20
2018-09-24T15:54:43.090Z,40.10
2018-09-24T15:57:24.809Z,40.10
2018-09-24T16:00:06.440Z,39.90
2018-09-24T16:02:48.287Z,40.20
2018-09-24T16:05:29.904Z,40.40
2018-09-24T16:08:11.452Z,41.10
2018-09-24T16:10:53.184Z,40.90
2018-09-24T16:13:34.772Z,40.80
2018-09-24T16:16:16.416Z,41.60
2018-09-24T16:18:58.064Z,42.10
2018-09-24T16:21:39.579Z,42.90
2018-09-24T16:24:21.187Z,42.60
2018-09-24T16:27:02.855Z,43.60
2018-09-24T16:29:44.491Z,43.20
2018-09-24T16:32:26.152Z,44.30
2018-09-24T16:35:07.939Z,45.10
2018-09-24T16:37:49.397Z,45.50
2018-09-24T16:40:31.056Z,45.70
2018-09-24T16:43:12.897Z,46.30
2018-09-24T16:45:54.638Z,46.20
2018-09-24T16:48:36.242Z,46.60
2018-09-24T16:51:17.823Z,47.10
2018-09-24T16:53:59.466Z,47.50
2018-09-24T16:56:41.143Z,48.30
2018-09-24T16:59:23.316Z,47.80
2018-09-24T17:02:05.970Z,47.80
2018-09-24T17:04:48.305Z,48.10
2018-09-24T17:07:29.822Z,48.10
2018-09-24T17:10:11.944Z,48.50
2018-09-24T17:12:53.581Z,48.30
2018-09-24T17:15:35.353Z,48.90
2018-09-24T17:18:16.973Z,49.10
2018-09-24T17:20:58.801Z,50.00
2018-09-24T17:23:40.495Z,49.60
2018-09-24T17:26:22.264Z,50.70
2018-09-24T17:29:04.099Z,50.60
2018-09-24T17:31:45.583Z,51.10
2018-09-24T17:34:27.269Z,51.90
2018-09-24T17:37:08.948Z,52.00
2018-09-24T17:39:51.211Z,51.70
2018-09-24T17:42:32.871Z,51.10
2018-09-24T17:45:14.463Z,51.10
2018-09-24T17:47:56.210Z,50.80
2018-09-24T17:50:38.016Z,50.60
2018-09-24T17:53:20.111Z,50.90
2018-09-24T17:56:01.840Z,50.60
2018-09-24T17:58:44.976Z,51.10
2018-09-24T18:01:26.528Z,50.60
2018-09-24T18:04:08.087Z,49.90
2018-09-24T18:06:51.263Z,50.10
2018-09-24T18:09:32.943Z,50.80
2018-09-24T18:12:15.250Z,50.30
2018-09-24T18:14:57.512Z,50.40
2018-09-24T18:17:39.458Z,50.00
2018-09-24T18:20:22.469Z,49.20
2018-09-24T18:23:04.268Z,50.10
2018-09-24T18:25:45.952Z,51.00
2018-09-24T18:28:28.330Z,51.60
2018-09-24T18:31:10.175Z,51.80
2018-09-24T18:33:51.667Z,52.20
2018-09-24T18:36:33.394Z,52.20
2018-09-24T18:39:16.168Z,52.70
2018-09-24T18:41:57.849Z,53.00
2018-09-24T18:44:39.548Z,53.40
2018-09-24T18:47:21.338Z,53.40
2018-09-24T18:50:03.029Z,54.00
2018-09-24T18:52:44.607Z,54.40
2018-09-24T18:55:26.093Z,54.60
2018-09-24T18:58:07.773Z,55.30
2018-09-24T19:00:49.539Z,55.70
2018-09-24T19:03:31.231Z,56.20
2018-09-24T19:06:13.346Z,56.40
2018-09-24T19:08:54.978Z,56.50
2018-09-24T19:11:36.815Z,56.40
2018-09-24T19:14:18.491Z,57.10
2018-09-24T19:17:00.138Z,58.20
2018-09-24T19:19:41.775Z,57.90
2018-09-24T19:22:23.543Z,58.30
2018-09-24T19:25:05.168Z,58.40
2018-09-24T19:27:47.067Z,58.30
2018-09-24T19:30:29.276Z,58.70
2018-09-24T19:33:11.092Z,60.20
2018-09-24T19:35:52.942Z,60.50
2018-09-24T19:38:34.636Z,61.30
2018-09-24T19:41:16.417Z,60.40
2018-09-24T19:43:58.142Z,59.40
2018-09-24T19:46:40.199Z,60.10
2018-09-24T19:49:21.787Z,57.80
2018-09-24T19:52:03.739Z,58.60
2018-09-24T19:54:45.487Z,61.00
2018-09-24T19:57:27.244Z,60.90
2018-09-24T20:00:09.726Z,62.10
2018-09-24T20:02:51.181Z,62.50
2018-09-24T20:05:32.787Z,61.20
2018-09-24T20:08:14.515Z,62.60
2018-09-24T20:10:56.167Z,63.10
2018-09-24T20:13:38.173Z,60.70
2018-09-24T20:16:19.752Z,60.30
2018-09-24T20:19:01.471Z,60.90
2018-09-24T20:21:43.324Z,62.90
2018-09-24T20:24:25.065Z,62.20
2018-09-24T20:27:06.979Z,63.60
2018-09-24T20:29:48.567Z,63.30
2018-09-24T20:32:30.132Z,64.60
2018-09-24T20:35:11.926Z,64.50
2018-09-24T20:37:53.411Z,62.70
2018-09-24T20:40:34.929Z,61.50
2018-09-24T20:43:16.809Z,61.00
2018-09-24T20:45:58.466Z,62.00
2018-09-24T20:48:40.095Z,61.30
2018-09-24T20:51:21.646Z,63.10
2018-09-24T20:54:03.256Z,60.10
2018-09-24T20:56:45.015Z,59.70
2018-09-24T20:59:26.627Z,57.30
2018-09-24T21:02:08.425Z,57.10
2018-09-24T21:04:50.089Z,57.20
2018-09-24T21:07:31.811Z,58.40
2018-09-24T21:10:13.478Z,59.00
2018-09-24T21:12:55.087Z,59.30
2018-09-24T21:15:37.447Z,57.30
2018-09-24T21:18:19.012Z,58.00
2018-09-24T21:21:01.568Z,57.30
2018-09-24T21:23:43.200Z,57.40
2018-09-24T21:26:24.828Z,57.20
2018-09-24T21:29:06.528Z,58.50
2018-09-24T21:31:48.023Z,58.40
2018-09-24T21:34:30.010Z,58.30
2018-09-24T21:37:11.762Z,57.70
2018-09-24T21:39:53.288Z,58.00
2018-09-24T21:42:34.861Z,58.80
2018-09-24T21:45:16.436Z,58.40
2018-09-24T21:47:58.170Z,57.20
2018-09-24T21:50:39.800Z,57.30
2018-09-24T21:53:22.571Z,58.00
2018-09-24T21:56:04.117Z,58.80
2018-09-24T21:58:45.694Z,59.50
2018-09-24T22:01:27.319Z,58.60
2018-09-24T22:04:09.088Z,58.20
2018-09-24T22:06:50.885Z,58.20
2018-09-24T22:09:32.708Z,59.10
2018-09-24T22:12:14.433Z,58.70
2018-09-24T22:14:56.132Z,59.50
2018-09-24T22:17:37.829Z,59.90
2018-09-24T22:20:20.234Z,59.80
2018-09-24T22:23:01.793Z,60.30
2018-09-24T22:25:43.550Z,60.10
2018-09-24T22:28:25.341Z,60.20
2018-09-24T22:31:07.064Z,61.40
2018-09-24T22:33:48.653Z,61.30
2018-09-24T22:36:30.520Z,61.10
2018-09-24T22:39:14.450Z,62.10
2018-09-24T22:41:55.910Z,62.10
2018-09-24T22:44:37.698Z,65.10
2018-09-24T22:47:19.466Z,62.90
2018-09-24T22:50:01.908Z,62.90
2018-09-24T22:52:43.828Z,62.40
2018-09-24T22:55:25.372Z,62.40
2018-09-24T22:58:06.882Z,62.80
2018-09-24T23:00:48.526Z,63.60
2018-09-24T23:03:30.148Z,63.40
2018-09-24T23:06:11.848Z,64.20
2018-09-24T23:08:53.462Z,65.30
2018-09-24T23:11:35.165Z,65.10
2018-09-24T23:14:17.339Z,66.00
2018-09-24T23:16:59.271Z,65.40
2018-09-24T23:19:41.011Z,65.10
2018-09-24T23:22:22.730Z,66.30
2018-09-24T23:25:04.494Z,66.30
2018-09-24T23:27:46.190Z,66.00
2018-09-24T23:30:28.048Z,67.50
2018-09-24T23:33:10.324Z,67.00
2018-09-24T23:35:51.851Z,67.20
2018-09-24T23:38:33.508Z,67.40
2018-09-24T23:41:15.313Z,67.90
2018-09-24T23:43:57.133Z,68.50
2018-09-24T23:46:38.657Z,69.60
2018-09-24T23:49:20.292Z,69.80
2018-09-24T23:52:01.994Z,70.30
2018-09-24T23:54:43.699Z,69.80
2018-09-24T23:57:25.315Z,70.10
